createdAt,value
2022-09-07T00:02:07.340Z,99152.91
2022-09-07T00:04:34.596Z,99149.41
2022-09-07T00:07:02.187Z,99152.94
2022-09-07T00:09:29.192Z,99146.84
2022-09-07T00:11:56.260Z,99149.44
2022-09-07T00:14:23.875Z,99140.75
2022-09-07T00:16:50.885Z,99131.22
2022-09-07T00:19:18.103Z,99129.50
2022-09-07T00:21:45.485Z,99132.13
2022-09-07T00:24:12.549Z,99129.53
2022-09-07T00:26:39.630Z,99130.38
2022-09-07T00:29:07.841Z,99134.75
2022-09-07T00:31:34.794Z,99133.03
2022-09-07T00:34:02.237Z,99127.84
2022-09-07T00:36:29.254Z,99123.50
2022-09-07T00:38:56.576Z,99127.84
2022-09-07T00:41:23.759Z,99120.03
2022-09-07T00:43:52.515Z,99117.44
2022-09-07T00:46:24.591Z,99116.56
2022-09-07T00:49:02.887Z,99113.09
2022-09-07T00:51:33.642Z,99115.72
2022-09-07T00:54:03.125Z,99111.38
2022-09-07T00:56:32.221Z,99106.19
2022-09-07T00:58:59.496Z,99107.06
2022-09-07T01:01:27.587Z,99105.31
2022-09-07T01:03:56.293Z,99113.97
2022-09-07T01:06:26.672Z,99105.31
2022-09-07T01:08:55.238Z,99106.19
2022-09-07T01:11:23.151Z,99101.84
2022-09-07T01:13:51.002Z,99102.72
2022-09-07T01:16:30.245Z,99109.66
2022-09-07T01:19:05.754Z,99102.72
2022-09-07T01:21:35.779Z,99103.59
2022-09-07T01:24:02.720Z,99101.88
2022-09-07T01:26:43.935Z,99107.97
2022-09-07T01:29:24.224Z,99106.25
2022-09-07T01:31:54.184Z,99103.63
2022-09-07T01:34:22.728Z,99099.28
2022-09-07T01:37:03.147Z,99097.56
2022-09-07T01:39:36.366Z,99092.38
2022-09-07T01:42:10.615Z,99093.25
2022-09-07T01:44:39.988Z,99100.19
2022-09-07T01:47:10.883Z,99086.28
2022-09-07T01:49:56.672Z,99088.03
2022-09-07T01:52:28.636Z,99088.06
2022-09-07T01:55:00.212Z,99089.81
2022-09-07T01:57:36.655Z,99090.69
2022-09-07T02:00:11.768Z,99082.88
2022-09-07T02:02:50.940Z,99091.56
2022-09-07T02:05:22.518Z,99080.28
2022-09-07T02:07:55.300Z,99090.72
2022-09-07T02:10:25.783Z,99087.22
2022-09-07T02:13:14.802Z,99089.84
2022-09-07T02:15:41.757Z,99083.75
2022-09-07T02:18:10.918Z,99082.03
2022-09-07T02:20:39.267Z,99073.34
2022-09-07T02:23:11.541Z,99078.53
2022-09-07T02:25:53.684Z,99071.63
2022-09-07T02:28:29.783Z,99073.34
2022-09-07T02:30:56.962Z,99071.63
2022-09-07T02:33:24.242Z,99081.16
2022-09-07T02:35:51.753Z,99071.63
2022-09-07T02:38:18.700Z,99075.94
2022-09-07T02:40:50.714Z,99075.97
2022-09-07T02:43:17.645Z,99069.00
2022-09-07T02:45:47.587Z,99070.75
2022-09-07T02:48:17.644Z,99076.81
2022-09-07T02:50:47.198Z,99070.72
2022-09-07T02:53:14.394Z,99073.34
2022-09-07T02:56:06.448Z,99062.94
2022-09-07T02:58:33.456Z,99068.09
2022-09-07T03:01:06.656Z,99060.28
2022-09-07T03:03:51.795Z,99049.81
2022-09-07T03:06:33.566Z,99055.91
2022-09-07T03:09:04.497Z,99059.34
2022-09-07T03:11:32.270Z,99057.59
2022-09-07T03:14:12.474Z,99058.47
2022-09-07T03:16:39.510Z,99066.25
2022-09-07T03:19:06.576Z,99062.78
2022-09-07T03:21:33.579Z,99065.38
2022-09-07T03:24:00.561Z,99063.63
2022-09-07T03:26:27.698Z,99063.59
2022-09-07T03:28:55.035Z,99054.91
2022-09-07T03:31:22.195Z,99048.78
2022-09-07T03:33:49.226Z,99043.53
2022-09-07T03:36:16.102Z,99048.72
2022-09-07T03:38:43.083Z,99049.56
2022-09-07T03:41:10.213Z,99046.91
2022-09-07T03:43:37.174Z,99044.28
2022-09-07T03:46:05.186Z,99042.53
2022-09-07T03:48:35.566Z,99045.13
2022-09-07T03:51:09.599Z,99040.78
2022-09-07T03:53:38.057Z,99044.19
2022-09-07T03:56:06.381Z,99038.03
2022-09-07T03:58:33.989Z,99041.50
2022-09-07T04:01:04.611Z,99040.56
2022-09-07T04:03:31.639Z,99019.63
2022-09-07T04:05:59.048Z,99029.13
2022-09-07T04:08:27.182Z,99022.97
2022-09-07T04:10:55.657Z,99019.47
2022-09-07T04:13:22.664Z,99019.47
2022-09-07T04:15:53.366Z,99021.25
2022-09-07T04:18:21.603Z,99029.13
2022-09-07T04:20:52.755Z,99029.09
2022-09-07T04:23:20.245Z,99026.41
2022-09-07T04:25:51.095Z,99023.69
2022-09-07T04:28:18.377Z,99021.84
2022-09-07T04:30:45.795Z,99022.66
2022-09-07T04:33:13.304Z,99021.66
2022-09-07T04:35:40.898Z,99019.72
2022-09-07T04:38:08.540Z,99014.19
2022-09-07T04:40:36.179Z,99004.25
2022-09-07T04:43:05.548Z,99015.97
2022-09-07T04:45:32.522Z,99013.53
2022-09-07T04:47:59.437Z,99008.00
2022-09-07T04:50:26.367Z,99007.06
2022-09-07T04:52:53.327Z,98998.38
2022-09-07T04:55:20.247Z,99001.75
2022-09-07T04:57:50.532Z,99001.63
2022-09-07T05:00:17.586Z,99000.63
2022-09-07T05:02:44.747Z,98996.13
2022-09-07T05:05:11.708Z,98991.28
2022-09-07T05:07:38.718Z,98990.91
2022-09-07T05:10:05.779Z,98992.53
2022-09-07T05:12:32.946Z,98985.44
2022-09-07T05:14:59.965Z,98986.34
2022-09-07T05:17:28.311Z,98988.13
2022-09-07T05:19:55.256Z,98980.25
2022-09-07T05:22:22.626Z,98989.31
2022-09-07T05:24:49.603Z,98984.56
2022-09-07T05:27:16.720Z,98981.44
2022-09-07T05:30:03.772Z,98982.75
2022-09-07T05:32:32.342Z,98984.81
2022-09-07T05:34:59.233Z,98980.41
2022-09-07T05:37:26.750Z,98986.13
2022-09-07T05:39:56.031Z,98984.78
2022-09-07T05:42:23.083Z,98986.00
2022-09-07T05:44:49.998Z,98976.22
2022-09-07T05:47:17.018Z,98978.03
2022-09-07T05:49:43.921Z,98973.53
2022-09-07T05:52:10.973Z,98963.75
2022-09-07T05:54:37.996Z,98962.03
2022-09-07T05:57:05.288Z,98973.63
2022-09-07T05:59:32.320Z,98972.53
2022-09-07T06:02:00.093Z,98977.53
2022-09-07T06:04:27.089Z,98990.53
2022-09-07T06:12:30.212Z,98981.69
2022-09-07T06:14:57.188Z,98975.19
2022-09-07T06:17:24.249Z,98971.91
2022-09-07T06:19:51.094Z,98975.22
2022-09-07T06:22:18.499Z,98969.31
2022-09-07T06:24:45.462Z,98966.94
2022-09-07T06:27:12.367Z,98963.28
2022-09-07T06:29:39.289Z,98961.06
2022-09-07T06:34:53.685Z,98956.56
2022-09-07T06:37:20.565Z,98958.91
2022-09-07T06:39:49.659Z,98953.41
2022-09-07T06:42:16.918Z,98958.81
2022-09-07T06:44:44.670Z,98955.88
2022-09-07T06:47:11.679Z,98959.88
2022-09-07T06:49:38.593Z,98963.22
2022-09-07T06:52:05.539Z,98957.84
2022-09-07T06:57:19.755Z,98961.59
2022-09-07T06:59:46.704Z,98960.53
2022-09-07T07:02:15.164Z,98959.59
2022-09-07T07:04:42.175Z,98964.59
2022-09-07T07:07:12.564Z,98962.09
2022-09-07T07:09:40.131Z,98963.72
2022-09-07T07:12:07.272Z,98959.97
2022-09-07T07:14:37.351Z,98957.72
2022-09-07T07:17:05.700Z,98950.47
2022-09-07T07:19:32.615Z,98950.66
2022-09-07T07:22:36.042Z,98945.88
2022-09-07T07:24:46.613Z,98949.56
2022-09-07T07:27:13.762Z,98954.78
2022-09-07T07:29:41.355Z,98949.63
2022-09-07T07:32:08.263Z,98947.91
2022-09-07T07:34:35.180Z,98945.25
2022-09-07T07:37:02.147Z,98951.63
2022-09-07T07:42:16.419Z,98948.16
2022-09-07T07:44:43.266Z,98950.78
2022-09-07T07:47:10.544Z,98954.94
2022-09-07T07:49:37.422Z,98949.41
2022-09-07T07:54:53.549Z,98950.28
2022-09-07T07:57:24.080Z,98944.88
2022-09-07T07:59:51.124Z,98941.28
2022-09-07T08:02:18.688Z,98942.22
2022-09-07T08:04:45.671Z,98939.69
2022-09-07T08:07:13.174Z,98938.56
2022-09-07T08:09:43.721Z,98932.91
2022-09-07T08:12:12.319Z,98933.00
2022-09-07T08:14:43.567Z,98938.50
2022-09-07T08:17:11.399Z,98925.44
2022-09-07T08:19:38.736Z,98931.66
2022-09-07T08:22:05.694Z,98916.72
2022-09-07T08:24:32.626Z,98923.75
2022-09-07T08:26:59.711Z,98923.97
2022-09-07T08:29:27.175Z,98917.38
2022-09-07T08:31:54.544Z,98912.09
2022-09-07T08:34:22.092Z,98922.91
2022-09-07T08:36:49.011Z,98910.72
2022-09-07T08:39:16.086Z,98920.06
2022-09-07T08:41:48.903Z,98917.81
2022-09-07T08:44:18.728Z,98918.75
2022-09-07T08:46:50.283Z,98914.88
2022-09-07T08:49:24.256Z,98915.84
2022-09-07T08:51:55.341Z,98916.81
2022-09-07T08:54:22.472Z,98912.44
2022-09-07T08:59:52.392Z,98912.22
2022-09-07T09:05:20.106Z,98916.69
2022-09-07T09:06:10.831Z,98908.31
2022-09-07T09:07:52.176Z,98909.44
2022-09-07T09:10:25.978Z,98909.59
2022-09-07T09:13:11.429Z,98909.78
2022-09-07T09:15:44.760Z,98914.19
2022-09-07T09:18:30.085Z,98908.25
2022-09-07T09:20:57.815Z,98911.00
2022-09-07T09:23:27.152Z,98918.28
2022-09-07T09:25:55.439Z,98914.44
2022-09-07T09:28:23.516Z,98913.19
2022-09-07T09:30:51.687Z,98917.00
2022-09-07T09:33:18.578Z,98913.75
2022-09-07T09:36:01.436Z,98913.22
2022-09-07T09:38:30.073Z,98919.28
2022-09-07T09:41:08.086Z,98925.84
2022-09-07T09:44:07.458Z,98913.75
2022-09-07T09:46:36.413Z,98916.16
2022-09-07T09:49:24.860Z,98907.69
2022-09-07T09:54:42.272Z,98904.50
2022-09-07T09:57:16.366Z,98901.25
2022-09-07T10:00:02.785Z,98904.78
2022-09-07T10:05:27.808Z,98907.22
2022-09-07T10:07:54.890Z,98901.81
2022-09-07T10:10:21.880Z,98906.16
2022-09-07T10:12:52.716Z,98906.50
2022-09-07T10:15:27.006Z,98900.88
2022-09-07T10:17:54.454Z,98908.31
2022-09-07T10:20:38.352Z,98903.00
2022-09-07T10:23:06.200Z,98899.28
2022-09-07T10:25:36.982Z,98895.41
2022-09-07T10:28:11.450Z,98898.19
2022-09-07T10:30:57.275Z,98898.13
2022-09-07T10:34:25.816Z,98895.03
2022-09-07T10:36:52.789Z,98889.63
2022-09-07T10:39:25.815Z,98898.69
2022-09-07T10:41:53.198Z,98898.78
2022-09-07T10:44:29.194Z,98902.06
2022-09-07T10:46:58.697Z,98907.47
2022-09-07T10:50:22.010Z,98906.69
2022-09-07T10:52:48.654Z,98908.16
2022-09-07T10:55:39.009Z,98904.31
2022-09-07T11:01:28.323Z,98914.75
2022-09-07T11:04:06.738Z,98906.84
2022-09-07T11:06:37.768Z,98910.75
2022-09-07T11:09:20.491Z,98910.22
2022-09-07T11:12:06.395Z,98911.75
2022-09-07T11:14:44.944Z,98912.84
2022-09-07T11:17:23.717Z,98920.56
2022-09-07T11:19:56.539Z,98920.06
2022-09-07T11:22:32.172Z,98911.59
2022-09-07T11:25:34.066Z,98922.59
2022-09-07T11:28:12.696Z,98919.59
2022-09-07T11:31:11.909Z,98917.53
2022-09-07T11:36:44.285Z,98899.41
2022-09-07T11:39:17.538Z,98897.00
2022-09-07T11:41:52.687Z,98902.34
2022-09-07T11:44:30.117Z,98903.38
2022-09-07T11:47:17.175Z,98902.56
2022-09-07T11:49:47.706Z,98891.31
2022-09-07T11:52:26.825Z,98890.53
2022-09-07T11:54:56.329Z,98888.84
2022-09-07T11:57:29.461Z,98891.53
2022-09-07T12:00:02.562Z,98877.69
2022-09-07T12:02:59.241Z,98881.19
2022-09-07T12:05:45.442Z,98877.69
2022-09-07T12:08:32.959Z,98876.78
2022-09-07T12:11:22.678Z,98875.06
2022-09-07T12:14:02.585Z,98865.38
2022-09-07T12:16:29.452Z,98866.88
2022-09-07T12:19:05.358Z,98865.84
2022-09-07T12:21:35.039Z,98858.78
2022-09-07T12:24:02.424Z,98862.44
2022-09-07T12:26:38.288Z,98865.28
2022-09-07T12:29:17.756Z,98855.97
2022-09-07T12:31:57.640Z,98857.09
2022-09-07T12:34:32.232Z,98857.38
2022-09-07T12:37:18.814Z,98852.41
2022-09-07T12:39:45.780Z,98850.03
2022-09-07T12:45:18.907Z,98854.88
2022-09-07T12:47:56.249Z,98857.63
2022-09-07T12:50:39.145Z,98854.22
2022-09-07T12:53:06.949Z,98854.31
2022-09-07T12:55:34.191Z,98845.66
2022-09-07T12:58:50.272Z,98846.69
2022-09-07T13:01:24.911Z,98839.94
2022-09-07T13:04:12.727Z,98843.50
2022-09-07T13:07:09.166Z,98842.63
2022-09-07T13:09:36.925Z,98836.53
2022-09-07T13:15:09.653Z,98838.38
2022-09-07T13:17:42.576Z,98841.84
2022-09-07T13:20:09.383Z,98833.09
2022-09-07T13:22:36.541Z,98837.44
2022-09-07T13:25:27.652Z,98832.19
2022-09-07T13:28:02.317Z,98835.59
2022-09-07T13:30:29.293Z,98841.66
2022-09-07T13:33:15.256Z,98831.16
2022-09-07T13:35:45.562Z,98835.47
2022-09-07T13:38:14.323Z,98846.72
2022-09-07T13:40:46.898Z,98831.97
2022-09-07T13:43:16.985Z,98839.03
2022-09-07T13:46:13.680Z,98840.97
2022-09-07T13:48:49.639Z,98841.19
2022-09-07T13:51:27.635Z,98843.94
2022-09-07T13:54:06.759Z,98841.34
2022-09-07T13:56:33.929Z,98840.53
2022-09-07T13:59:11.248Z,98842.25
2022-09-07T14:01:43.151Z,98838.75
2022-09-07T14:04:28.983Z,98840.53
2022-09-07T14:07:03.293Z,98839.53
2022-09-07T14:09:30.554Z,98838.56
2022-09-07T14:11:57.370Z,98841.06
2022-09-07T14:14:25.362Z,98833.09
2022-09-07T14:16:52.431Z,98840.84
2022-09-07T14:19:23.891Z,98840.53
2022-09-07T14:22:01.817Z,98827.84
2022-09-07T14:24:41.877Z,98821.25
2022-09-07T14:27:24.765Z,98822.50
2022-09-07T14:29:51.817Z,98826.41
2022-09-07T14:32:21.623Z,98818.19
2022-09-07T14:34:48.972Z,98825.66
2022-09-07T14:37:17.315Z,98822.00
2022-09-07T14:39:46.233Z,98822.72
2022-09-07T14:42:15.746Z,98831.34
2022-09-07T14:44:45.691Z,98826.00
2022-09-07T14:47:24.812Z,98832.16
2022-09-07T14:49:52.972Z,98826.88
2022-09-07T14:52:22.632Z,98828.63
2022-09-07T14:54:51.684Z,98828.75
2022-09-07T14:57:18.631Z,98822.81
2022-09-07T14:59:47.111Z,98821.25
2022-09-07T15:02:24.245Z,98828.47
2022-09-07T15:05:17.192Z,98825.28
2022-09-07T15:07:49.440Z,98828.31
2022-09-07T15:10:23.173Z,98825.03
2022-09-07T15:12:51.406Z,98826.97
2022-09-07T15:15:18.254Z,98828.06
2022-09-07T15:17:45.848Z,98823.88
2022-09-07T15:20:48.333Z,98826.63
2022-09-07T15:23:17.629Z,98826.66
2022-09-07T15:25:50.480Z,98827.53
2022-09-07T15:29:08.157Z,98826.72
2022-09-07T15:34:13.041Z,98831.97
2022-09-07T15:36:42.694Z,98827.53
2022-09-07T15:39:18.011Z,98831.84
2022-09-07T15:41:45.314Z,98827.53
2022-09-07T15:44:13.752Z,98828.44
2022-09-07T15:46:41.898Z,98831.22
2022-09-07T15:49:09.079Z,98834.88
2022-09-07T15:54:23.070Z,98839.50
2022-09-07T15:59:38.057Z,98838.78
2022-09-07T16:03:04.632Z,98837.97
2022-09-07T16:04:52.100Z,98845.06
2022-09-07T16:07:19.179Z,98841.66
2022-09-07T16:09:46.992Z,98848.69
2022-09-07T16:15:00.764Z,98855.72
2022-09-07T16:17:35.782Z,98855.72
2022-09-07T16:20:06.903Z,98854.88
2022-09-07T16:25:24.800Z,98856.59
2022-09-07T16:27:54.163Z,98863.59
2022-09-07T16:30:22.306Z,98863.66
2022-09-07T16:32:51.131Z,98866.34
2022-09-07T16:35:18.189Z,98868.09
2022-09-07T16:40:41.550Z,98872.53
2022-09-07T16:43:11.607Z,98870.78
2022-09-07T16:48:25.413Z,98873.47
2022-09-07T16:51:00.310Z,98877.06
2022-09-07T16:53:32.784Z,98878.91
2022-09-07T16:56:07.071Z,98876.34
2022-09-07T16:58:35.710Z,98886.03
2022-09-07T17:01:14.183Z,98883.47
2022-09-07T17:03:44.661Z,98883.47
2022-09-07T17:06:16.457Z,98885.19
2022-09-07T17:08:46.416Z,98891.31
2022-09-07T17:11:15.160Z,98886.91
2022-09-07T17:13:52.682Z,98884.34
2022-09-07T17:16:58.316Z,98878.31
2022-09-07T17:20:08.035Z,98881.09
2022-09-07T17:22:39.535Z,98887.34
2022-09-07T17:25:22.463Z,98880.47
2022-09-07T17:27:49.780Z,98876.06
2022-09-07T17:30:20.795Z,98885.63
2022-09-07T17:32:51.827Z,98885.50
2022-09-07T17:41:08.073Z,98888.03
2022-09-07T17:43:45.258Z,98885.41
2022-09-07T17:46:21.724Z,98888.94
2022-09-07T17:48:49.975Z,98889.88
2022-09-07T17:51:21.642Z,98889.00
2022-09-07T17:53:58.804Z,98890.03
2022-09-07T17:56:29.696Z,98886.78
2022-09-07T18:00:10.461Z,98885.16
2022-09-07T18:01:45.167Z,98891.47
2022-09-07T18:04:13.491Z,98890.69
2022-09-07T18:06:41.464Z,98895.22
2022-09-07T18:09:08.375Z,98893.66
2022-09-07T18:11:51.071Z,98891.25
2022-09-07T18:14:18.891Z,98901.88
2022-09-07T18:16:46.878Z,98892.44
2022-09-07T18:19:13.891Z,98900.34
2022-09-07T18:21:42.337Z,98901.31
2022-09-07T18:24:13.970Z,98902.25
2022-09-07T18:26:41.304Z,98893.66
2022-09-07T18:29:19.248Z,98904.97
2022-09-07T18:31:57.588Z,98907.56
2022-09-07T18:34:24.639Z,98907.53
2022-09-07T18:36:51.579Z,98910.13
2022-09-07T18:39:18.521Z,98909.13
2022-09-07T18:41:45.535Z,98911.66
2022-09-07T18:46:59.851Z,98917.56
2022-09-07T18:49:26.649Z,98927.03
2022-09-07T18:54:41.542Z,98919.22
2022-09-07T18:57:08.505Z,98920.16
2022-09-07T18:59:35.471Z,98916.75
2022-09-07T19:02:04.855Z,98923.88
2022-09-07T19:07:20.981Z,98917.19
2022-09-07T19:09:51.012Z,98920.00
2022-09-07T19:12:17.921Z,98918.41
2022-09-07T19:14:44.742Z,98919.41
2022-09-07T19:17:11.948Z,98918.69
2022-09-07T19:19:39.735Z,98918.75
2022-09-07T19:22:06.753Z,98917.97
2022-09-07T19:24:33.625Z,98916.31
2022-09-07T19:27:03.842Z,98926.81
2022-09-07T19:29:30.729Z,98920.75
2022-09-07T19:32:11.935Z,98925.13
2022-09-07T19:34:40.230Z,98919.94
2022-09-07T19:37:07.734Z,98918.22
2022-09-07T19:39:34.635Z,98924.25
2022-09-07T19:42:04.222Z,98924.25
2022-09-07T19:44:31.579Z,98929.41
2022-09-07T19:46:58.858Z,98924.13
2022-09-07T19:49:25.976Z,98921.47
2022-09-07T19:51:52.920Z,98921.41
2022-09-07T19:54:27.885Z,98920.47
2022-09-07T19:56:57.915Z,98925.69
2022-09-07T19:59:25.067Z,98921.28
2022-09-07T20:01:56.116Z,98922.97
2022-09-07T20:04:23.874Z,98922.06
2022-09-07T20:06:52.023Z,98912.44
2022-09-07T20:09:20.143Z,98915.00
2022-09-07T20:11:48.221Z,98916.69
2022-09-07T20:14:15.987Z,98914.88
2022-09-07T20:16:46.173Z,98913.91
2022-09-07T20:19:16.109Z,98920.81
2022-09-07T20:21:45.720Z,98922.50
2022-09-07T20:24:21.658Z,98918.97
2022-09-07T20:26:49.795Z,98911.94
2022-09-07T20:29:27.254Z,98917.97
2022-09-07T20:31:59.503Z,98915.28
2022-09-07T20:34:27.114Z,98919.56
2022-09-07T20:36:57.438Z,98909.91
2022-09-07T20:39:24.798Z,98909.88
2022-09-07T20:41:51.775Z,98906.31
2022-09-07T20:44:19.042Z,98917.59
2022-09-07T20:46:46.115Z,98911.47
2022-09-07T20:49:13.013Z,98912.38
2022-09-07T20:51:40.034Z,98915.84
2022-09-07T20:54:07.327Z,98915.84
2022-09-07T20:56:34.337Z,98920.16
2022-09-07T20:59:02.181Z,98917.56
2022-09-07T21:01:29.861Z,98920.28
2022-09-07T21:03:58.288Z,98920.38
2022-09-07T21:06:26.403Z,98917.00
2022-09-07T21:08:53.553Z,98922.31
2022-09-07T21:11:21.911Z,98921.50
2022-09-07T21:13:54.486Z,98913.78
2022-09-07T21:16:21.589Z,98918.16
2022-09-07T21:18:51.766Z,98918.16
2022-09-07T21:21:20.102Z,98921.59
2022-09-07T21:23:48.133Z,98925.00
2022-09-07T21:26:15.223Z,98920.59
2022-09-07T21:28:42.154Z,98924.03
2022-09-07T21:31:09.539Z,98920.50
2022-09-07T21:33:37.750Z,98925.66
2022-09-07T21:36:12.440Z,98929.94
2022-09-07T21:38:40.296Z,98927.25
2022-09-07T21:41:07.401Z,98927.16
2022-09-07T21:43:34.417Z,98925.34
2022-09-07T21:46:10.386Z,98923.53
2022-09-07T21:48:38.216Z,98920.00
2022-09-07T21:51:05.436Z,98923.38
2022-09-07T21:53:32.471Z,98921.63
2022-09-07T21:56:01.087Z,98917.25
2022-09-07T21:58:28.582Z,98919.91
2022-09-07T22:00:55.685Z,98918.19
2022-09-07T22:03:23.224Z,98916.44
2022-09-07T22:05:50.271Z,98922.53
2022-09-07T22:08:17.278Z,98920.75
2022-09-07T22:10:44.778Z,98914.63
2022-09-07T22:13:24.230Z,98912.81
2022-09-07T22:15:57.326Z,98918.03
2022-09-07T22:18:24.233Z,98916.25
2022-09-07T22:21:00.575Z,98919.72
2022-09-07T22:23:29.624Z,98918.81
2022-09-07T22:25:56.547Z,98920.53
2022-09-07T22:28:23.339Z,98920.53
2022-09-07T22:30:50.242Z,98917.88
2022-09-07T22:33:17.018Z,98926.59
2022-09-07T22:35:45.047Z,98921.41
2022-09-07T22:38:11.872Z,98922.28
2022-09-07T22:40:38.931Z,98924.91
2022-09-07T22:43:07.145Z,98918.78
2022-09-07T22:45:34.155Z,98931.84
2022-09-07T22:48:01.445Z,98924.00
2022-09-07T22:50:28.303Z,98928.38
2022-09-07T22:52:55.197Z,98918.84
2022-09-07T22:55:22.084Z,98933.66
2022-09-07T22:57:48.911Z,98934.56
2022-09-07T23:00:16.061Z,98937.19
2022-09-07T23:02:43.192Z,98931.09
2022-09-07T23:05:10.241Z,98943.28
2022-09-07T23:07:37.129Z,98937.16
2022-09-07T23:10:04.160Z,98932.78
2022-09-07T23:12:31.350Z,98941.47
2022-09-07T23:14:58.382Z,98939.69
2022-09-07T23:17:25.219Z,98943.16
2022-09-07T23:19:52.107Z,98935.25
2022-09-07T23:22:18.917Z,98939.59
2022-09-07T23:24:45.847Z,98940.44
2022-09-07T23:27:12.678Z,98944.75
2022-09-07T23:29:39.532Z,98947.41
2022-09-07T23:32:06.595Z,98937.84
2022-09-07T23:34:33.958Z,98943.91
2022-09-07T23:37:00.879Z,98947.41
2022-09-07T23:39:27.699Z,98943.03
2022-09-07T23:41:55.172Z,98941.28
2022-09-07T23:44:22.211Z,98945.59
2022-09-07T23:46:49.085Z,98945.59
2022-09-07T23:49:15.995Z,98947.34
2022-09-07T23:51:42.834Z,98950.81
2022-09-07T23:54:10.214Z,98953.44
2022-09-07T23:56:38.222Z,98952.56
2022-09-07T23:59:05.657Z,98960.44
